Time;durP1;ratioP1;P1;durP2;ratioP2;P2;SDS_P1;SDS_P2;PMS_P1;PMS_P2;Temp;Humidity;BMP_temperature;BMP_pressure;BME280_temperature;BME280_humidity;BME280_pressure;Samples;Min_cycle;Max_cycle;Signal;HPM_P1;HPM_P2
2023/07/20 00:00:53;;;;;;;1.43;1.20;;;;;;;;;;5054367;28;20204;-56
2023/07/20 00:03:22;;;;;;;1.37;1.00;;;;;;;;;;5054290;28;20196;-56
2023/07/20 00:05:49;;;;;;;1.43;0.97;;;;;;;;;;5054130;28;20699;-56
2023/07/20 00:08:17;;;;;;;1.00;1.00;;;;;;;;;;5054260;28;20231;-56
2023/07/20 00:10:43;;;;;;;1.87;1.20;;;;;;;;;;5054227;28;20284;-56
2023/07/20 00:13:09;;;;;;;2.00;1.20;;;;;;;;;;5054139;28;20592;-56
2023/07/20 00:15:35;;;;;;;1.10;1.00;;;;;;;;;;5054076;28;20561;-56
2023/07/20 00:18:01;;;;;;;2.60;1.20;;;;;;;;;;5053971;28;20692;-56
2023/07/20 00:20:27;;;;;;;1.20;1.10;;;;;;;;;;5053919;28;20565;-56
2023/07/20 00:22:54;;;;;;;1.10;1.00;;;;;;;;;;5054144;28;20209;-56
2023/07/20 00:25:22;;;;;;;1.77;1.03;;;;;;;;;;5054095;28;20683;-57
2023/07/20 00:27:48;;;;;;;1.03;0.93;;;;;;;;;;5053954;28;20195;-56
2023/07/20 00:30:14;;;;;;;1.80;1.10;;;;;;;;;;5053705;28;20200;-57
2023/07/20 00:32:40;;;;;;;1.00;1.00;;;;;;;;;;5053781;28;20188;-57
2023/07/20 00:35:06;;;;;;;1.43;1.10;;;;;;;;;;5053674;28;20253;-56
2023/07/20 00:37:32;;;;;;;1.43;1.10;;;;;;;;;;5053709;28;20235;-55
2023/07/20 00:39:58;;;;;;;2.40;1.20;;;;;;;;;;5053693;28;20196;-56
2023/07/20 00:42:26;;;;;;;1.37;1.20;;;;;;;;;;5053457;28;20253;-55
2023/07/20 00:44:52;;;;;;;1.20;1.07;;;;;;;;;;5053777;28;20283;-56
2023/07/20 00:47:18;;;;;;;1.43;1.00;;;;;;;;;;5053280;28;20628;-56
2023/07/20 00:49:44;;;;;;;1.30;0.97;;;;;;;;;;5053439;28;20201;-56
2023/07/20 00:52:11;;;;;;;1.27;1.10;;;;;;;;;;5053484;28;20203;-56
2023/07/20 00:54:37;;;;;;;1.30;1.20;;;;;;;;;;5053479;28;20228;-56
2023/07/20 00:57:04;;;;;;;2.00;1.30;;;;;;;;;;5053230;28;20270;-56
2023/07/20 00:59:32;;;;;;;2.00;1.40;;;;;;;;;;5052061;28;20204;-56
2023/07/20 01:01:58;;;;;;;1.53;1.27;;;;;;;;;;5053479;28;20203;-57
2023/07/20 01:04:26;;;;;;;2.07;1.57;;;;;;;;;;5053294;28;20577;-56
2023/07/20 01:06:57;;;;;;;1.50;1.40;;;;;;;;;;5053233;28;20210;-56
2023/07/20 01:09:26;;;;;;;2.10;1.33;;;;;;;;;;5053182;28;20203;-55
2023/07/20 01:11:55;;;;;;;2.67;1.50;;;;;;;;;;5053260;28;20614;-55
2023/07/20 01:14:22;;;;;;;1.50;1.40;;;;;;;;;;5052951;28;20235;-55
2023/07/20 01:16:52;;;;;;;1.40;1.30;;;;;;;;;;5052868;28;20283;-56
2023/07/20 01:19:18;;;;;;;1.77;1.57;;;;;;;;;;5052638;28;20503;-56
2023/07/20 01:21:48;;;;;;;2.60;1.90;;;;;;;;;;5052833;28;20235;-55
2023/07/20 01:24:31;;;;;;;2.00;1.80;;;;;;;;;;5052614;28;20658;-55
2023/07/20 01:27:15;;;;;;;5.80;1.80;;;;;;;;;;5052833;28;20682;-56
2023/07/20 01:29:50;;;;;;;2.90;2.10;;;;;;;;;;5052554;28;20203;-57
2023/07/20 01:32:17;;;;;;;3.23;1.80;;;;;;;;;;5052500;28;20195;-57
2023/07/20 01:34:44;;;;;;;2.43;2.03;;;;;;;;;;5052740;28;20338;-57
2023/07/20 01:37:11;;;;;;;2.60;1.90;;;;;;;;;;5052497;28;20223;-55
2023/07/20 01:39:37;;;;;;;2.67;1.77;;;;;;;;;;5052492;28;20246;-55
2023/07/20 01:42:04;;;;;;;3.33;2.07;;;;;;;;;;5052437;28;20205;-56
2023/07/20 01:44:30;;;;;;;2.60;2.00;;;;;;;;;;5052048;28;20290;-56
2023/07/20 01:46:56;;;;;;;2.90;2.50;;;;;;;;;;5052342;28;20204;-55
2023/07/20 01:49:23;;;;;;;4.27;2.17;;;;;;;;;;5052246;28;20192;-56
2023/07/20 01:51:49;;;;;;;2.60;2.00;;;;;;;;;;5052317;28;20283;-56
2023/07/20 01:54:15;;;;;;;3.27;2.70;;;;;;;;;;5052029;28;20576;-56
2023/07/20 01:56:41;;;;;;;2.63;2.40;;;;;;;;;;5050954;28;20200;-56
2023/07/20 01:59:07;;;;;;;2.80;2.17;;;;;;;;;;5051979;28;20599;-56
2023/07/20 02:01:33;;;;;;;2.90;2.33;;;;;;;;;;5051979;28;20203;-56
2023/07/20 02:03:59;;;;;;;3.50;2.30;;;;;;;;;;5052291;28;20192;-56
2023/07/20 02:06:27;;;;;;;4.17;2.10;;;;;;;;;;5051963;28;20281;-57
2023/07/20 02:08:53;;;;;;;2.37;2.00;;;;;;;;;;5052136;28;20627;-57
2023/07/20 02:11:19;;;;;;;3.50;2.20;;;;;;;;;;5051832;28;20207;-56
2023/07/20 02:13:45;;;;;;;2.80;2.30;;;;;;;;;;5051880;28;20196;-55
2023/07/20 02:16:11;;;;;;;2.83;2.37;;;;;;;;;;5052105;28;20200;-56
2023/07/20 02:18:37;;;;;;;4.43;2.27;;;;;;;;;;5051745;28;20234;-56
2023/07/20 02:21:03;;;;;;;2.30;2.10;;;;;;;;;;5051989;28;20477;-57
2023/07/20 02:23:31;;;;;;;2.57;2.20;;;;;;;;;;5051774;28;20204;-56
2023/07/20 02:25:57;;;;;;;2.30;2.10;;;;;;;;;;5051812;28;20210;-56
2023/07/20 02:28:23;;;;;;;3.53;2.17;;;;;;;;;;5051732;28;20194;-56
2023/07/20 02:30:49;;;;;;;2.03;1.83;;;;;;;;;;5051628;28;20280;-56
2023/07/20 02:33:15;;;;;;;2.40;2.20;;;;;;;;;;5051593;28;20196;-56
2023/07/20 02:35:41;;;;;;;3.43;2.30;;;;;;;;;;5051913;28;20262;-57
2023/07/20 02:38:08;;;;;;;5.10;1.90;;;;;;;;;;5051552;28;20714;-57
2023/07/20 02:40:35;;;;;;;2.20;2.00;;;;;;;;;;5051460;28;20204;-56
2023/07/20 02:43:01;;;;;;;2.63;2.27;;;;;;;;;;5051482;28;20258;-56
2023/07/20 02:45:27;;;;;;;2.20;2.10;;;;;;;;;;5051658;28;20250;-57
2023/07/20 02:47:53;;;;;;;2.60;2.20;;;;;;;;;;5051884;28;20196;-56
2023/07/20 02:50:19;;;;;;;2.40;2.17;;;;;;;;;;5051427;28;20724;-60
2023/07/20 02:52:45;;;;;;;2.30;2.10;;;;;;;;;;5051625;28;20279;-55
2023/07/20 02:55:11;;;;;;;4.20;2.70;;;;;;;;;;5051407;28;20651;-58
2023/07/20 02:57:38;;;;;;;3.20;2.63;;;;;;;;;;5051535;28;20281;-55
2023/07/20 03:00:06;;;;;;;2.40;2.20;;;;;;;;;;5051408;28;20670;-56
2023/07/20 03:02:32;;;;;;;2.57;2.33;;;;;;;;;;5051392;28;20232;-55
2023/07/20 03:04:58;;;;;;;3.80;2.30;;;;;;;;;;5051417;28;20247;-55
2023/07/20 03:07:25;;;;;;;2.40;2.20;;;;;;;;;;5051440;28;20200;-56
2023/07/20 03:09:51;;;;;;;2.60;2.40;;;;;;;;;;5051383;28;20196;-55
2023/07/20 03:12:17;;;;;;;2.60;2.30;;;;;;;;;;5051260;28;20220;-55
2023/07/20 03:14:44;;;;;;;2.70;2.50;;;;;;;;;;5051450;28;20278;-56
2023/07/20 03:17:10;;;;;;;5.73;2.50;;;;;;;;;;5051216;28;20211;-56
2023/07/20 03:19:36;;;;;;;3.50;2.40;;;;;;;;;;5051497;28;20271;-56
2023/07/20 03:22:02;;;;;;;2.63;2.40;;;;;;;;;;5051060;28;20549;-54
2023/07/20 03:24:28;;;;;;;3.07;2.40;;;;;;;;;;5054479;28;20207;-57
2023/07/20 03:26:54;;;;;;;3.70;2.83;;;;;;;;;;5055520;28;20204;-55
2023/07/20 03:29:20;;;;;;;2.53;2.33;;;;;;;;;;5054839;28;20220;-57
2023/07/20 03:31:48;;;;;;;2.80;2.60;;;;;;;;;;5054861;28;20446;-56
2023/07/20 03:34:14;;;;;;;2.60;2.40;;;;;;;;;;5054854;28;20231;-55
2023/07/20 03:36:40;;;;;;;2.90;2.30;;;;;;;;;;5054831;28;20544;-56
2023/07/20 03:39:06;;;;;;;2.60;2.40;;;;;;;;;;5054725;28;20220;-56
2023/07/20 03:41:32;;;;;;;3.20;2.40;;;;;;;;;;5054663;28;20494;-56
2023/07/20 03:43:58;;;;;;;2.50;2.30;;;;;;;;;;5054574;28;20232;-55
2023/07/20 03:46:24;;;;;;;4.33;2.60;;;;;;;;;;5054620;28;20200;-54
2023/07/20 03:48:52;;;;;;;2.87;2.40;;;;;;;;;;5054618;28;20196;-53
2023/07/20 03:51:18;;;;;;;3.33;2.93;;;;;;;;;;5054433;28;20686;-53
2023/07/20 03:53:44;;;;;;;2.97;2.67;;;;;;;;;;5054416;28;20200;-54
2023/07/20 03:56:11;;;;;;;2.83;2.53;;;;;;;;;;5054442;28;20211;-55
2023/07/20 03:58:37;;;;;;;2.73;2.53;;;;;;;;;;5053799;28;20318;-54
2023/07/20 04:01:03;;;;;;;3.20;2.90;;;;;;;;;;5053640;28;20487;-55
2023/07/20 04:03:29;;;;;;;4.67;3.27;;;;;;;;;;5054303;28;20254;-55
2023/07/20 04:05:56;;;;;;;2.90;2.60;;;;;;;;;;5054322;28;20216;-55
2023/07/20 04:08:24;;;;;;;3.30;3.00;;;;;;;;;;5054174;28;20298;-54
2023/07/20 04:10:50;;;;;;;3.17;2.93;;;;;;;;;;5054231;28;20283;-54
2023/07/20 04:13:16;;;;;;;4.77;3.53;;;;;;;;;;5054255;28;20287;-54
2023/07/20 04:15:42;;;;;;;5.13;3.30;;;;;;;;;;5053984;28;20204;-55
2023/07/20 04:18:08;;;;;;;4.33;3.93;;;;;;;;;;5054083;28;20273;-55
2023/07/20 04:20:34;;;;;;;3.70;3.40;;;;;;;;;;5053831;28;20199;-54
2023/07/20 04:23:02;;;;;;;4.63;3.33;;;;;;;;;;5053971;28;20543;-54
2023/07/20 04:25:28;;;;;;;3.80;3.40;;;;;;;;;;5053815;28;20209;-55
2023/07/20 04:27:55;;;;;;;4.07;3.67;;;;;;;;;;5053939;28;20227;-55
2023/07/20 04:30:22;;;;;;;3.67;3.27;;;;;;;;;;5053625;28;20196;-55
2023/07/20 04:32:48;;;;;;;3.77;3.20;;;;;;;;;;5053802;28;20207;-54
2023/07/20 04:35:17;;;;;;;3.43;3.03;;;;;;;;;;5053643;28;20212;-55
2023/07/20 04:37:45;;;;;;;3.60;3.27;;;;;;;;;;5053647;28;20259;-54
2023/07/20 04:40:13;;;;;;;3.70;3.40;;;;;;;;;;5053661;28;20254;-54
2023/07/20 04:42:39;;;;;;;3.70;3.40;;;;;;;;;;5053439;28;20236;-55
2023/07/20 04:45:06;;;;;;;3.60;3.37;;;;;;;;;;5053585;28;20207;-55
2023/07/20 04:47:32;;;;;;;4.53;3.30;;;;;;;;;;5053429;28;20206;-56
2023/07/20 04:49:58;;;;;;;3.40;3.10;;;;;;;;;;5053472;28;20196;-55
2023/07/20 04:52:24;;;;;;;4.13;3.83;;;;;;;;;;5053409;28;20242;-55
2023/07/20 04:54:50;;;;;;;3.77;3.40;;;;;;;;;;5053597;28;20662;-56
2023/07/20 04:57:17;;;;;;;3.87;3.53;;;;;;;;;;5053152;28;20279;-55
2023/07/20 04:59:43;;;;;;;4.10;3.70;;;;;;;;;;5053165;28;20200;-54
2023/07/20 05:02:09;;;;;;;4.47;3.40;;;;;;;;;;5053394;28;20192;-55
2023/07/20 05:04:36;;;;;;;4.10;3.80;;;;;;;;;;5052937;28;20728;-55
2023/07/20 05:07:02;;;;;;;4.40;4.00;;;;;;;;;;5053286;28;20714;-55
2023/07/20 05:09:28;;;;;;;4.00;3.70;;;;;;;;;;5052994;28;20206;-55
2023/07/20 05:11:54;;;;;;;4.07;3.70;;;;;;;;;;5053338;28;20208;-55
2023/07/20 05:14:21;;;;;;;4.30;3.90;;;;;;;;;;5052841;28;20204;-55
2023/07/20 05:16:47;;;;;;;4.77;3.70;;;;;;;;;;5052892;28;20283;-55
2023/07/20 05:19:13;;;;;;;4.50;4.10;;;;;;;;;;5052576;28;20766;-55
2023/07/20 05:21:39;;;;;;;4.10;3.80;;;;;;;;;;5052891;28;20204;-55
2023/07/20 05:24:06;;;;;;;3.90;3.60;;;;;;;;;;5052936;28;20279;-54
2023/07/20 05:26:32;;;;;;;4.00;3.70;;;;;;;;;;5052691;28;20222;-55
2023/07/20 05:28:58;;;;;;;4.27;3.90;;;;;;;;;;5052944;28;20207;-55
2023/07/20 05:31:26;;;;;;;4.17;3.77;;;;;;;;;;5052601;28;20200;-55
2023/07/20 05:33:52;;;;;;;4.83;3.73;;;;;;;;;;5052736;28;20315;-55
2023/07/20 05:36:18;;;;;;;3.43;3.13;;;;;;;;;;5052438;28;20231;-55
2023/07/20 05:38:44;;;;;;;4.53;4.23;;;;;;;;;;5052440;28;20259;-55
2023/07/20 05:41:10;;;;;;;4.67;4.27;;;;;;;;;;5052526;28;20292;-55
2023/07/20 05:43:36;;;;;;;4.30;3.90;;;;;;;;;;5052219;28;20250;-55
2023/07/20 05:46:02;;;;;;;4.87;4.37;;;;;;;;;;5051636;28;20234;-56
2023/07/20 05:48:29;;;;;;;4.20;3.90;;;;;;;;;;5052203;28;20222;-55
2023/07/20 05:50:56;;;;;;;5.03;4.20;;;;;;;;;;5052353;28;20200;-56
2023/07/20 05:53:22;;;;;;;5.00;4.50;;;;;;;;;;5052258;28;20192;-55
2023/07/20 05:55:52;;;;;;;4.87;4.00;;;;;;;;;;5052248;28;20250;-55
2023/07/20 05:58:18;;;;;;;5.07;4.67;;;;;;;;;;5052109;28;20516;-55
2023/07/20 06:00:44;;;;;;;5.60;4.03;;;;;;;;;;5052041;28;20211;-56
2023/07/20 06:03:11;;;;;;;4.37;4.00;;;;;;;;;;5052084;28;20254;-56
2023/07/20 06:05:38;;;;;;;4.60;4.20;;;;;;;;;;5051891;28;20647;-57
2023/07/20 06:08:06;;;;;;;4.50;4.17;;;;;;;;;;5052026;28;20204;-58
2023/07/20 06:10:32;;;;;;;3.90;3.60;;;;;;;;;;5054338;28;20222;-56
2023/07/20 06:12:58;;;;;;;3.93;3.50;;;;;;;;;;5071945;28;20204;-56
2023/07/20 06:15:28;;;;;;;3.93;3.63;;;;;;;;;;5071814;28;20192;-57
2023/07/20 06:17:54;;;;;;;4.53;4.10;;;;;;;;;;5071850;28;20709;-55
2023/07/20 06:20:20;;;;;;;3.47;3.23;;;;;;;;;;5071754;28;20260;-54
2023/07/20 06:22:48;;;;;;;3.60;3.30;;;;;;;;;;5071790;28;20191;-56
2023/07/20 06:25:14;;;;;;;3.50;3.20;;;;;;;;;;5071627;28;20207;-56
2023/07/20 06:27:40;;;;;;;3.23;2.70;;;;;;;;;;5071804;28;20664;-55
2023/07/20 06:30:06;;;;;;;4.33;2.93;;;;;;;;;;5071577;28;20274;-54
2023/07/20 06:32:32;;;;;;;2.90;2.70;;;;;;;;;;5071588;28;20206;-56
2023/07/20 06:34:58;;;;;;;3.53;2.10;;;;;;;;;;5071569;28;20196;-57
2023/07/20 06:37:25;;;;;;;3.90;2.67;;;;;;;;;;5071557;28;20205;-56
2023/07/20 06:39:52;;;;;;;3.70;2.40;;;;;;;;;;5071541;28;20557;-56
2023/07/20 06:42:18;;;;;;;2.67;2.20;;;;;;;;;;5071409;28;20204;-55
2023/07/20 06:44:45;;;;;;;2.53;2.00;;;;;;;;;;5071625;28;20204;-55
2023/07/20 06:47:14;;;;;;;3.10;2.10;;;;;;;;;;5071675;28;20619;-57
2023/07/20 06:49:40;;;;;;;2.17;1.90;;;;;;;;;;5071897;28;20189;-57
2023/07/20 06:52:07;;;;;;;5.47;1.80;;;;;;;;;;5071595;28;20197;-57
2023/07/20 06:54:33;;;;;;;2.30;2.10;;;;;;;;;;5071397;28;20200;-56
2023/07/20 06:57:01;;;;;;;2.47;1.80;;;;;;;;;;5072189;28;20203;-55
2023/07/20 06:59:27;;;;;;;1.70;1.60;;;;;;;;;;5075501;28;20225;-55
2023/07/20 07:01:53;;;;;;;3.50;1.73;;;;;;;;;;5075435;28;20205;-56
2023/07/20 07:04:19;;;;;;;2.97;1.70;;;;;;;;;;5075387;28;20197;-55
2023/07/20 07:06:45;;;;;;;2.33;1.50;;;;;;;;;;5075242;28;20233;-56
2023/07/20 07:09:11;;;;;;;3.03;1.30;;;;;;;;;;5075329;28;20603;-56
2023/07/20 07:11:37;;;;;;;3.00;1.80;;;;;;;;;;5075365;28;20195;-56
2023/07/20 07:14:04;;;;;;;2.77;1.33;;;;;;;;;;5075222;28;20253;-56
2023/07/20 07:16:30;;;;;;;4.40;1.40;;;;;;;;;;5075310;28;20582;-56
2023/07/20 07:19:00;;;;;;;1.53;1.00;;;;;;;;;;5075101;28;20736;-56
2023/07/20 07:21:26;;;;;;;2.00;1.17;;;;;;;;;;5075153;28;20206;-56
2023/07/20 07:23:54;;;;;;;2.57;1.40;;;;;;;;;;5075029;28;20654;-55
2023/07/20 07:26:21;;;;;;;2.57;1.50;;;;;;;;;;5075088;28;20203;-57
2023/07/20 07:28:47;;;;;;;1.17;1.07;;;;;;;;;;5074923;28;20627;-56
2023/07/20 07:31:15;;;;;;;1.83;1.00;;;;;;;;;;5074934;28;20199;-56
2023/07/20 07:33:41;;;;;;;0.83;0.70;;;;;;;;;;5075197;28;20202;-55
2023/07/20 07:36:09;;;;;;;1.00;0.80;;;;;;;;;;5074940;28;20278;-53
2023/07/20 07:38:35;;;;;;;1.27;0.90;;;;;;;;;;5074309;28;20307;-54
2023/07/20 07:41:01;;;;;;;3.40;1.00;;;;;;;;;;5074876;28;20282;-53
2023/07/20 07:43:28;;;;;;;1.30;0.70;;;;;;;;;;5074434;28;20739;-55
2023/07/20 07:45:55;;;;;;;1.03;0.90;;;;;;;;;;5074372;28;20201;-55
2023/07/20 07:48:25;;;;;;;1.00;0.80;;;;;;;;;;5074694;28;20271;-53
2023/07/20 07:50:51;;;;;;;0.80;0.67;;;;;;;;;;5074877;28;20576;-54
2023/07/20 07:53:18;;;;;;;0.60;0.60;;;;;;;;;;5074471;28;20219;-54
2023/07/20 07:55:44;;;;;;;1.23;1.03;;;;;;;;;;5074480;28;20194;-53
2023/07/20 07:58:10;;;;;;;0.70;0.70;;;;;;;;;;5074492;28;20255;-54
2023/07/20 08:00:36;;;;;;;1.53;0.70;;;;;;;;;;5074270;28;20196;-53
2023/07/20 08:03:04;;;;;;;1.90;0.80;;;;;;;;;;5074275;28;20413;-52
2023/07/20 08:05:31;;;;;;;0.77;0.77;;;;;;;;;;5074158;28;20220;-54
2023/07/20 08:07:57;;;;;;;2.07;0.73;;;;;;;;;;5074302;28;20192;-56
2023/07/20 08:10:23;;;;;;;1.20;0.90;;;;;;;;;;5073582;28;20646;-54
2023/07/20 08:12:49;;;;;;;1.03;0.90;;;;;;;;;;5074275;28;20192;-54
2023/07/20 08:15:15;;;;;;;1.73;0.90;;;;;;;;;;5073995;28;20670;-52
2023/07/20 08:17:43;;;;;;;0.90;0.70;;;;;;;;;;5074184;28;20590;-53
2023/07/20 08:20:12;;;;;;;1.50;0.70;;;;;;;;;;5073130;28;20668;-54
2023/07/20 08:22:39;;;;;;;1.37;0.80;;;;;;;;;;5073534;28;20204;-55
2023/07/20 08:25:05;;;;;;;1.03;0.70;;;;;;;;;;5073832;28;20286;-53
2023/07/20 08:27:32;;;;;;;2.57;0.90;;;;;;;;;;5073765;28;20294;-54
2023/07/20 08:29:58;;;;;;;0.60;0.60;;;;;;;;;;5072678;28;20628;-55
2023/07/20 08:32:27;;;;;;;1.00;0.70;;;;;;;;;;5073906;28;20206;-53
2023/07/20 08:34:53;;;;;;;1.00;0.60;;;;;;;;;;5073889;28;20196;-52
2023/07/20 08:37:19;;;;;;;1.47;1.03;;;;;;;;;;5073580;28;20249;-53
2023/07/20 08:39:47;;;;;;;0.73;0.73;;;;;;;;;;5073649;28;20219;-54
2023/07/20 08:42:15;;;;;;;0.93;0.73;;;;;;;;;;5073622;28;20200;-53
2023/07/20 08:44:42;;;;;;;1.00;0.80;;;;;;;;;;5073516;28;20283;-53
2023/07/20 08:47:09;;;;;;;1.33;0.80;;;;;;;;;;5073793;28;20187;-50
2023/07/20 08:49:35;;;;;;;2.87;0.80;;;;;;;;;;5073430;28;20650;-57
2023/07/20 08:52:02;;;;;;;1.07;0.87;;;;;;;;;;5073439;28;20763;-56
2023/07/20 08:54:32;;;;;;;1.73;0.77;;;;;;;;;;5073234;28;20206;-58
2023/07/20 08:57:02;;;;;;;1.57;0.90;;;;;;;;;;5073205;28;20708;-57
2023/07/20 08:59:28;;;;;;;0.80;0.80;;;;;;;;;;5073079;28;20231;-57
2023/07/20 09:01:55;;;;;;;1.33;0.70;;;;;;;;;;5073305;28;20245;-56
2023/07/20 09:04:22;;;;;;;1.17;0.97;;;;;;;;;;5072937;28;20225;-58
2023/07/20 09:06:49;;;;;;;0.80;0.70;;;;;;;;;;5073177;28;20222;-57
2023/07/20 09:09:15;;;;;;;0.97;0.80;;;;;;;;;;5072927;28;20231;-58
2023/07/20 09:11:41;;;;;;;1.30;0.90;;;;;;;;;;5073168;28;20200;-59
2023/07/20 09:14:10;;;;;;;0.97;0.63;;;;;;;;;;5072927;28;20230;-58
2023/07/20 09:16:48;;;;;;;1.00;0.90;;;;;;;;;;5072761;28;20572;-59
2023/07/20 09:19:15;;;;;;;1.10;0.90;;;;;;;;;;5072736;28;20298;-58
2023/07/20 09:21:41;;;;;;;1.50;0.70;;;;;;;;;;5071852;28;20347;-59
2023/07/20 09:24:07;;;;;;;1.07;0.77;;;;;;;;;;5073072;28;20662;-58
2023/07/20 09:26:40;;;;;;;0.70;0.60;;;;;;;;;;5072855;28;20198;-59
2023/07/20 09:29:09;;;;;;;1.53;0.87;;;;;;;;;;5072988;28;20560;-58
2023/07/20 09:31:36;;;;;;;1.20;0.80;;;;;;;;;;5062936;28;20664;-62
2023/07/20 09:34:05;;;;;;;1.57;1.00;;;;;;;;;;5072770;28;20260;-59
2023/07/20 09:36:33;;;;;;;1.33;0.80;;;;;;;;;;5070563;28;20819;-59
2023/07/20 09:39:03;;;;;;;1.20;0.80;;;;;;;;;;5070878;28;20312;-57
2023/07/20 09:41:30;;;;;;;2.53;0.77;;;;;;;;;;5072477;28;20275;-59
2023/07/20 09:43:56;;;;;;;1.27;0.80;;;;;;;;;;5072473;28;20605;-59
2023/07/20 09:46:22;;;;;;;0.83;0.80;;;;;;;;;;5072428;28;20614;-59
2023/07/20 09:48:59;;;;;;;2.03;1.20;;;;;;;;;;5072546;28;20236;-59
2023/07/20 09:51:25;;;;;;;1.10;1.00;;;;;;;;;;5072563;28;20217;-58
2023/07/20 09:53:54;;;;;;;1.83;0.70;;;;;;;;;;5072383;28;20201;-57
2023/07/20 09:56:23;;;;;;;1.00;0.90;;;;;;;;;;5072457;28;20277;-58
2023/07/20 09:58:49;;;;;;;0.80;0.80;;;;;;;;;;5072351;28;20299;-59
2023/07/20 10:01:18;;;;;;;2.30;0.90;;;;;;;;;;5072199;28;20204;-59
2023/07/20 10:03:45;;;;;;;1.40;0.90;;;;;;;;;;5071866;28;20663;-58
2023/07/20 10:06:15;;;;;;;1.60;1.10;;;;;;;;;;5072253;28;20312;-59
2023/07/20 10:08:42;;;;;;;2.63;1.23;;;;;;;;;;5072076;28;20240;-59
2023/07/20 10:11:08;;;;;;;1.73;1.27;;;;;;;;;;5072268;28;20208;-59
2023/07/20 10:13:38;;;;;;;2.90;1.40;;;;;;;;;;5072089;28;20201;-59
2023/07/20 10:16:25;;;;;;;1.50;1.40;;;;;;;;;;5071930;28;20730;-59
2023/07/20 10:18:55;;;;;;;1.80;1.47;;;;;;;;;;5071744;28;20240;-58
2023/07/20 10:21:22;;;;;;;1.87;1.33;;;;;;;;;;5071654;28;20237;-59
2023/07/20 10:23:49;;;;;;;1.70;1.60;;;;;;;;;;5071704;28;20297;-59
2023/07/20 10:26:15;;;;;;;2.43;1.67;;;;;;;;;;5071580;28;20233;-59
2023/07/20 10:28:42;;;;;;;1.77;1.60;;;;;;;;;;5071508;28;20191;-59
2023/07/20 10:31:08;;;;;;;2.00;1.80;;;;;;;;;;5071775;28;20198;-58
2023/07/20 10:33:34;;;;;;;1.57;1.30;;;;;;;;;;5071073;28;20203;-59
2023/07/20 10:36:02;;;;;;;1.70;1.20;;;;;;;;;;5071410;28;20183;-59
2023/07/20 10:38:41;;;;;;;1.63;1.20;;;;;;;;;;5071303;28;20211;-58
2023/07/20 10:41:17;;;;;;;1.77;1.20;;;;;;;;;;5071519;28;20233;-59
2023/07/20 10:43:43;;;;;;;1.30;1.20;;;;;;;;;;5071088;28;20699;-59
2023/07/20 10:46:11;;;;;;;1.13;0.90;;;;;;;;;;5071563;28;20191;-58
2023/07/20 10:48:57;;;;;;;2.03;1.30;;;;;;;;;;5071227;28;20179;-59
2023/07/20 10:51:23;;;;;;;1.10;0.90;;;;;;;;;;5071121;28;20192;-58
2023/07/20 10:53:53;;;;;;;0.90;0.90;;;;;;;;;;5071239;28;20249;-59
2023/07/20 10:56:20;;;;;;;1.50;1.10;;;;;;;;;;5071205;28;20203;-58
2023/07/20 10:58:46;;;;;;;1.13;0.80;;;;;;;;;;5071155;28;20260;-58
2023/07/20 11:01:14;;;;;;;0.83;0.80;;;;;;;;;;5070969;28;20637;-58
2023/07/20 11:03:40;;;;;;;1.13;0.80;;;;;;;;;;5071157;28;20210;-58
2023/07/20 11:06:25;;;;;;;2.63;0.97;;;;;;;;;;5071078;28;20240;-58
2023/07/20 11:08:56;;;;;;;0.93;0.83;;;;;;;;;;5071237;28;20190;-59
2023/07/20 11:11:26;;;;;;;0.90;0.63;;;;;;;;;;5071118;28;20596;-58
2023/07/20 11:13:59;;;;;;;1.87;1.07;;;;;;;;;;5071131;28;20193;-58
2023/07/20 11:16:34;;;;;;;0.80;0.70;;;;;;;;;;5070936;28;20229;-59
2023/07/20 11:19:01;;;;;;;2.47;0.97;;;;;;;;;;5071097;28;20244;-58
2023/07/20 11:21:27;;;;;;;1.10;1.00;;;;;;;;;;5071082;28;20192;-59
2023/07/20 11:23:53;;;;;;;1.03;0.80;;;;;;;;;;5071210;28;20654;-58
2023/07/20 11:26:21;;;;;;;2.00;0.60;;;;;;;;;;5070954;28;20215;-59
2023/07/20 11:28:49;;;;;;;0.70;0.70;;;;;;;;;;5070884;28;20203;-59
2023/07/20 11:31:18;;;;;;;1.20;0.73;;;;;;;;;;5070984;28;20229;-59
2023/07/20 11:33:44;;;;;;;1.47;0.83;;;;;;;;;;5070591;28;20309;-60
2023/07/20 11:36:10;;;;;;;4.13;1.00;;;;;;;;;;5071274;28;20249;-60
2023/07/20 11:38:37;;;;;;;0.80;0.80;;;;;;;;;;5070669;28;20216;-59
2023/07/20 11:41:06;;;;;;;1.03;0.70;;;;;;;;;;5070868;28;20608;-60
2023/07/20 11:43:33;;;;;;;1.37;0.80;;;;;;;;;;5070543;28;20344;-58
2023/07/20 11:46:01;;;;;;;2.00;1.03;;;;;;;;;;5074399;28;20196;-60
2023/07/20 11:48:27;;;;;;;1.27;1.00;;;;;;;;;;5074247;28;20193;-58
2023/07/20 11:50:53;;;;;;;0.77;0.73;;;;;;;;;;5074479;28;20570;-59
2023/07/20 11:53:19;;;;;;;1.07;0.80;;;;;;;;;;5074296;28;20197;-59
2023/07/20 11:55:46;;;;;;;1.60;1.17;;;;;;;;;;5074299;28;20629;-59
2023/07/20 11:58:12;;;;;;;2.67;1.00;;;;;;;;;;5074222;28;20215;-58
2023/07/20 12:00:40;;;;;;;1.50;1.20;;;;;;;;;;5074176;28;20240;-59
2023/07/20 12:03:07;;;;;;;2.60;1.53;;;;;;;;;;5074149;28;20209;-59
2023/07/20 12:05:33;;;;;;;3.30;1.37;;;;;;;;;;5073646;28;20782;-57
2023/07/20 12:07:59;;;;;;;1.20;1.00;;;;;;;;;;5074248;28;20203;-59
2023/07/20 12:10:26;;;;;;;1.43;1.30;;;;;;;;;;5074113;28;20292;-58
2023/07/20 12:12:52;;;;;;;4.43;1.27;;;;;;;;;;5074128;28;20197;-57
2023/07/20 12:15:20;;;;;;;2.90;1.40;;;;;;;;;;5073863;28;20220;-57
2023/07/20 12:17:50;;;;;;;1.20;1.10;;;;;;;;;;5073706;28;20197;-58
2023/07/20 12:20:25;;;;;;;2.17;1.30;;;;;;;;;;5073673;28;20616;-59
2023/07/20 12:22:51;;;;;;;1.50;1.40;;;;;;;;;;5074064;28;20223;-59
2023/07/20 12:25:19;;;;;;;1.83;1.63;;;;;;;;;;5073814;28;20229;-60
2023/07/20 12:27:47;;;;;;;2.10;1.30;;;;;;;;;;5073530;28;20565;-59
2023/07/20 12:30:13;;;;;;;1.33;1.10;;;;;;;;;;5073641;28;20199;-60
2023/07/20 12:32:39;;;;;;;1.87;1.10;;;;;;;;;;5073606;28;20287;-59
2023/07/20 12:35:07;;;;;;;2.37;1.30;;;;;;;;;;5073445;28;20283;-58
2023/07/20 12:37:33;;;;;;;2.27;1.30;;;;;;;;;;5073792;28;20223;-59
2023/07/20 12:39:59;;;;;;;1.20;1.10;;;;;;;;;;5073261;28;20260;-59
2023/07/20 12:42:25;;;;;;;1.10;0.80;;;;;;;;;;5073336;28;20628;-59
2023/07/20 12:44:51;;;;;;;1.33;1.10;;;;;;;;;;5073409;28;20192;-59
2023/07/20 12:47:18;;;;;;;1.10;1.00;;;;;;;;;;5073240;28;20228;-58
2023/07/20 12:49:45;;;;;;;1.00;0.90;;;;;;;;;;5073270;28;20199;-58
2023/07/20 12:52:13;;;;;;;1.67;1.10;;;;;;;;;;5073353;28;20288;-59
2023/07/20 12:54:39;;;;;;;2.00;1.17;;;;;;;;;;5073027;28;20205;-58
2023/07/20 12:57:05;;;;;;;1.47;1.00;;;;;;;;;;5073140;28;20659;-58
2023/07/20 12:59:31;;;;;;;1.77;0.80;;;;;;;;;;5072731;28;20217;-58
2023/07/20 13:01:57;;;;;;;1.20;1.10;;;;;;;;;;5073144;28;20192;-59
2023/07/20 13:04:23;;;;;;;1.03;0.93;;;;;;;;;;5072985;28;20558;-59
2023/07/20 13:06:49;;;;;;;0.70;0.70;;;;;;;;;;5072908;28;20654;-60
2023/07/20 13:09:17;;;;;;;0.93;0.93;;;;;;;;;;5072831;28;20446;-60
2023/07/20 13:11:44;;;;;;;0.80;0.80;;;;;;;;;;5072763;28;20225;-57
2023/07/20 13:14:11;;;;;;;1.00;0.80;;;;;;;;;;5072889;28;20198;-58
2023/07/20 13:16:37;;;;;;;0.80;0.80;;;;;;;;;;5072642;28;20210;-58
2023/07/20 13:19:03;;;;;;;1.00;0.90;;;;;;;;;;5072687;28;20226;-58
2023/07/20 13:21:29;;;;;;;2.47;1.00;;;;;;;;;;5072557;28;20309;-58
2023/07/20 13:23:55;;;;;;;1.07;0.73;;;;;;;;;;5072844;28;20199;-58
2023/07/20 13:26:23;;;;;;;2.43;1.10;;;;;;;;;;5072537;28;20666;-58
2023/07/20 13:28:49;;;;;;;1.23;0.80;;;;;;;;;;5072713;28;20199;-58
2023/07/20 13:31:17;;;;;;;1.37;0.80;;;;;;;;;;5072515;28;20214;-58
2023/07/20 13:33:43;;;;;;;2.37;1.20;;;;;;;;;;5072129;28;20195;-58
2023/07/20 13:36:09;;;;;;;1.90;1.27;;;;;;;;;;5072555;28;20191;-57
2023/07/20 13:38:35;;;;;;;0.83;0.80;;;;;;;;;;5072236;28;20218;-58
2023/07/20 13:41:01;;;;;;;1.47;0.90;;;;;;;;;;5072354;28;20241;-59
2023/07/20 13:43:29;;;;;;;3.50;1.10;;;;;;;;;;5071939;28;20706;-59
2023/07/20 13:45:55;;;;;;;1.30;0.80;;;;;;;;;;5072302;28;20274;-58
2023/07/20 13:48:23;;;;;;;2.10;1.00;;;;;;;;;;5071965;28;20267;-58
2023/07/20 13:50:49;;;;;;;1.73;1.10;;;;;;;;;;5071961;28;20200;-58
2023/07/20 13:53:16;;;;;;;2.90;0.90;;;;;;;;;;5071856;28;20287;-58
2023/07/20 13:55:42;;;;;;;1.47;1.20;;;;;;;;;;5071962;28;20210;-57
2023/07/20 13:58:10;;;;;;;1.20;1.10;;;;;;;;;;5072012;28;20253;-57
2023/07/20 14:00:37;;;;;;;1.10;1.00;;;;;;;;;;5071888;28;20281;-57
2023/07/20 14:03:03;;;;;;;2.17;1.33;;;;;;;;;;5071877;28;20202;-57
2023/07/20 14:05:29;;;;;;;1.30;1.20;;;;;;;;;;5071690;28;20314;-57
2023/07/20 14:07:55;;;;;;;2.63;1.10;;;;;;;;;;5071619;28;20214;-57
2023/07/20 14:10:21;;;;;;;1.73;1.13;;;;;;;;;;5071804;28;20197;-58
2023/07/20 14:12:47;;;;;;;1.50;1.03;;;;;;;;;;5071793;28;20229;-57
2023/07/20 14:15:13;;;;;;;1.77;0.93;;;;;;;;;;5071666;28;20208;-57
2023/07/20 14:17:41;;;;;;;1.50;1.30;;;;;;;;;;5071706;28;20197;-58
2023/07/20 14:20:08;;;;;;;3.13;1.17;;;;;;;;;;5071805;28;20213;-59
2023/07/20 14:22:34;;;;;;;1.73;1.30;;;;;;;;;;5071505;28;20205;-57
2023/07/20 14:25:00;;;;;;;1.73;1.30;;;;;;;;;;5071595;28;20200;-57
2023/07/20 14:27:26;;;;;;;2.67;1.30;;;;;;;;;;5071348;28;20685;-58
2023/07/20 14:29:53;;;;;;;3.10;1.27;;;;;;;;;;5071413;28;20190;-58
2023/07/20 14:32:19;;;;;;;2.03;1.10;;;;;;;;;;5071447;28;20227;-58
2023/07/20 14:34:46;;;;;;;2.03;1.40;;;;;;;;;;5071364;28;20565;-57
2023/07/20 14:37:12;;;;;;;8.57;1.60;;;;;;;;;;5071601;28;20196;-58
2023/07/20 14:39:39;;;;;;;1.93;1.30;;;;;;;;;;5071329;28;20231;-57
2023/07/20 14:42:05;;;;;;;1.57;1.20;;;;;;;;;;5071440;28;20658;-57